Time;durP1;ratioP1;P1;durP2;ratioP2;P2;SDS_P1;SDS_P2;PMS_P1;PMS_P2;Temp;Humidity;BMP_temperature;BMP_pressure;BME280_temperature;BME280_humidity;BME280_pressure;Samples;Min_cycle;Max_cycle;Signal;HPM_P1;HPM_P2
2021/09/29 00:02:10;;;;;;;12.73;5.60;;;;;;;14.85;nan;102245.50;4900862;29;20417;-49
2021/09/29 00:04:36;;;;;;;15.38;6.70;;;;;;;14.82;nan;102242.25;4902383;29;20037;-51
2021/09/29 00:07:02;;;;;;;11.48;6.35;;;;;;;14.81;nan;102235.22;4900657;29;20070;-50
2021/09/29 00:09:27;;;;;;;13.73;6.43;;;;;;;14.76;nan;102239.69;4899055;29;20060;-48
2021/09/29 00:11:52;;;;;;;15.32;6.72;;;;;;;14.73;nan;102232.09;4898886;29;20055;-48
2021/09/29 00:14:18;;;;;;;14.85;6.25;;;;;;;14.71;nan;102229.59;4899544;29;20066;-48
2021/09/29 00:16:43;;;;;;;18.65;6.70;;;;;;;14.72;nan;102228.56;4903535;29;20383;-49
2021/09/29 00:19:09;;;;;;;18.88;6.85;;;;;;;14.68;nan;102226.56;4898014;29;20480;-49
2021/09/29 00:21:34;;;;;;;15.45;6.35;;;;;;;14.61;nan;102229.41;4899838;29;20035;-48
2021/09/29 00:24:00;;;;;;;16.75;6.72;;;;;;;14.55;nan;102219.59;4890059;29;20113;-48
2021/09/29 00:26:26;;;;;;;18.88;6.38;;;;;;;14.56;nan;102229.31;4900831;29;20491;-49
2021/09/29 00:28:51;;;;;;;19.35;6.85;;;;;;;14.59;nan;102222.63;4896084;29;20036;-50
2021/09/29 00:31:27;;;;;;;18.92;6.97;;;;;;;14.64;nan;102217.31;4900873;29;20038;-50
2021/09/29 00:33:59;;;;;;;15.35;6.57;;;;;;;14.65;nan;102216.25;4900174;29;20071;-49
2021/09/29 00:36:26;;;;;;;10.68;6.60;;;;;;;14.63;nan;102223.78;4898006;29;20035;-49
2021/09/29 00:38:52;;;;;;;15.90;6.50;;;;;;;14.56;nan;102217.69;4897016;29;20028;-48
2021/09/29 00:41:18;;;;;;;13.63;6.65;;;;;;;14.60;nan;102219.69;4898086;29;20053;-48
2021/09/29 00:43:43;;;;;;;17.15;5.70;;;;;;;14.41;nan;102218.16;4903339;29;20039;-49
2021/09/29 00:46:09;;;;;;;12.27;6.18;;;;;;;14.52;nan;102215.47;4925688;23;20478;-81
2021/09/29 00:48:34;;;;;;;13.05;6.18;;;;;;;14.58;nan;102215.59;4914271;29;20064;-81
2021/09/29 00:51:00;;;;;;;17.00;6.88;;;;;;;14.65;nan;102203.59;4907697;29;20035;-81
2021/09/29 00:53:26;;;;;;;14.38;6.28;;;;;;;14.64;nan;102198.44;4898137;29;20023;-81
2021/09/29 00:55:51;;;;;;;17.40;7.22;;;;;;;14.55;nan;102200.69;4912396;29;20798;-81
2021/09/29 00:58:17;;;;;;;18.17;7.50;;;;;;;14.54;nan;102196.34;4890834;29;20032;-81
2021/09/29 01:00:42;;;;;;;17.08;7.85;;;;;;;14.54;nan;102199.03;4896595;29;20036;-82
2021/09/29 01:03:09;;;;;;;15.15;7.10;;;;;;;14.57;nan;102182.41;4893806;29;20037;-81
2021/09/29 01:05:37;;;;;;;15.75;6.78;;;;;;;14.54;nan;102182.84;4905518;29;20048;-81
2021/09/29 01:08:12;;;;;;;17.60;7.55;;;;;;;14.46;nan;102186.75;4897054;29;20067;-81
2021/09/29 01:11:04;;;;;;;14.80;7.30;;;;;;;14.43;nan;102186.38;4912848;29;20028;-81
2021/09/29 01:13:37;;;;;;;18.10;7.55;;;;;;;14.46;nan;102178.66;4898513;29;20115;-81
2021/09/29 01:16:05;;;;;;;11.75;6.88;;;;;;;14.50;nan;102176.31;4910540;29;20251;-82
2021/09/29 01:18:35;;;;;;;14.90;7.38;;;;;;;14.47;nan;102176.78;4913351;29;20028;-81
2021/09/29 01:21:06;;;;;;;15.35;7.68;;;;;;;14.44;nan;102177.28;4912332;29;20028;-82
2021/09/29 01:23:49;;;;;;;13.65;7.07;;;;;;;14.49;nan;102171.97;4924765;29;20111;-82
2021/09/29 01:26:18;;;;;;;12.57;6.85;;;;;;;14.53;nan;102170.44;4920696;29;20359;-81
2021/09/29 01:28:51;;;;;;;15.95;6.70;;;;;;;14.58;nan;102165.16;4919643;29;20078;-81
2021/09/29 01:31:19;;;;;;;14.57;6.38;;;;;;;14.61;nan;102156.56;4921848;29;20028;-81
2021/09/29 01:33:46;;;;;;;13.70;6.07;;;;;;;14.59;nan;102160.56;4914382;29;20119;-81
2021/09/29 01:36:12;;;;;;;12.02;6.38;;;;;;;14.55;nan;102154.03;4909397;29;20039;-81
2021/09/29 01:38:41;;;;;;;12.68;7.00;;;;;;;14.57;nan;102158.13;4923272;29;20074;-81
2021/09/29 01:41:07;;;;;;;14.52;6.97;;;;;;;14.56;nan;102159.19;4919528;29;20605;-81
2021/09/29 01:43:33;;;;;;;21.80;8.15;;;;;;;14.51;nan;102148.28;4899625;29;20094;-81
2021/09/29 01:45:59;;;;;;;20.40;7.28;;;;;;;14.49;nan;102153.09;4921669;29;20029;-81
2021/09/29 01:48:25;;;;;;;15.68;7.10;;;;;;;14.53;nan;102154.25;4898011;29;20076;-82
2021/09/29 01:50:59;;;;;;;18.15;6.95;;;;;;;14.47;nan;102149.81;4914885;29;20032;-82
2021/09/29 01:53:31;;;;;;;11.23;7.57;;;;;;;14.50;nan;102152.03;4917789;29;20063;-81
2021/09/29 01:55:58;;;;;;;20.13;7.72;;;;;;;14.50;nan;102152.03;4895573;29;20076;-82
2021/09/29 01:58:23;;;;;;;19.08;7.88;;;;;;;14.54;nan;102150.50;4909114;29;21782;-82
2021/09/29 02:00:49;;;;;;;12.98;6.90;;;;;;;14.48;nan;102146.06;4892766;29;20035;-81
2021/09/29 02:03:21;;;;;;;13.90;7.43;;;;;;;14.48;nan;102149.56;4905663;29;20436;-81
2021/09/29 02:05:51;;;;;;;17.30;6.47;;;;;;;14.49;nan;102142.31;4904939;29;20036;-81
2021/09/29 02:08:17;;;;;;;12.48;6.47;;;;;;;14.54;nan;102139.69;4915676;29;20032;-82
2021/09/29 02:10:43;;;;;;;14.07;7.22;;;;;;;14.51;nan;102148.28;4915014;29;20032;-82
2021/09/29 02:13:09;;;;;;;20.23;6.90;;;;;;;14.54;nan;102145.09;4907018;29;20032;-82
2021/09/29 02:15:34;;;;;;;16.00;7.00;;;;;;;14.55;nan;102130.56;4903277;29;20028;-82
2021/09/29 02:18:00;;;;;;;16.17;6.35;;;;;;;14.48;nan;102135.28;4917214;29;20072;-82
2021/09/29 02:20:26;;;;;;;18.15;7.13;;;;;;;14.39;nan;102129.44;4892254;29;20423;-82
2021/09/29 02:22:51;;;;;;;17.58;6.65;;;;;;;14.41;nan;102129.19;4907642;29;20028;-82
2021/09/29 02:25:17;;;;;;;20.45;7.20;;;;;;;14.38;nan;102125.09;4917153;29;20043;-81
2021/09/29 02:27:43;;;;;;;17.20;7.03;;;;;;;14.36;nan;102121.81;4909094;29;20083;-81
2021/09/29 02:30:10;;;;;;;16.00;6.15;;;;;;;14.39;nan;102117.81;4912455;29;20547;-82
2021/09/29 02:32:40;;;;;;;16.73;7.03;;;;;;;14.36;nan;102111.03;4898571;29;20032;-82
2021/09/29 02:35:10;;;;;;;13.90;7.10;;;;;;;14.39;nan;102113.25;4908879;29;20505;-81
2021/09/29 02:37:36;;;;;;;20.77;7.47;;;;;;;14.34;nan;102115.00;4911746;29;20100;-81
2021/09/29 02:40:03;;;;;;;19.85;8.30;;;;;;;14.27;nan;102108.94;4917927;29;20054;-81
2021/09/29 02:42:29;;;;;;;20.27;8.68;;;;;;;14.20;nan;102109.09;4894237;29;20535;-82
2021/09/29 02:44:55;;;;;;;15.48;8.57;;;;;;;14.25;nan;102114.56;4910996;29;20092;-82
2021/09/29 02:47:20;;;;;;;21.10;9.63;;;;;;;14.23;nan;102122.09;4890858;29;20031;-83
2021/09/29 02:49:46;;;;;;;20.40;8.80;;;;;;;14.27;nan;102122.44;4893383;29;20626;-82
2021/09/29 02:52:11;;;;;;;15.98;8.38;;;;;;;14.31;nan;102104.72;4909702;29;20023;-81
2021/09/29 02:54:37;;;;;;;27.45;10.10;;;;;;;14.31;nan;102104.72;4898700;29;20407;-82
2021/09/29 02:57:03;;;;;;;25.60;9.57;;;;;;;14.26;nan;102112.69;4921659;29;20232;-81
2021/09/29 02:59:28;;;;;;;18.88;8.88;;;;;;;14.33;nan;102118.75;4908294;29;20012;-81
2021/09/29 03:01:54;;;;;;;22.13;10.20;;;;;;;14.34;nan;102107.75;4899562;29;20028;-81
2021/09/29 03:04:19;;;;;;;20.23;9.30;;;;;;;14.31;nan;102097.44;4897636;29;20033;-81
2021/09/29 03:06:45;;;;;;;28.58;10.32;;;;;;;14.23;nan;102099.72;4910526;29;20609;-82
2021/09/29 03:09:10;;;;;;;27.00;11.23;;;;;;;14.19;nan;102092.09;4890853;29;20089;-80
2021/09/29 03:11:36;;;;;;;23.42;10.32;;;;;;;14.18;nan;102093.16;4892543;29;20375;-81
2021/09/29 03:14:01;;;;;;;29.70;10.25;;;;;;;14.24;nan;102087.88;4899144;29;20031;-82
2021/09/29 03:16:27;;;;;;;30.30;10.63;;;;;;;14.18;nan;102086.91;4899716;29;20030;-82
2021/09/29 03:18:54;;;;;;;27.10;10.45;;;;;;;14.24;nan;102090.56;4913049;29;20482;-83
2021/09/29 03:21:21;;;;;;;27.00;10.02;;;;;;;14.17;nan;102090.69;4890885;29;20040;-82
2021/09/29 03:23:46;;;;;;;25.20;9.82;;;;;;;14.19;nan;102085.91;4899912;29;20032;-81
2021/09/29 03:26:12;;;;;;;27.30;10.40;;;;;;;14.17;nan;102080.72;4901717;29;20032;-82
2021/09/29 03:28:37;;;;;;;25.67;10.40;;;;;;;14.24;nan;102085.16;4915630;29;20039;-81
2021/09/29 03:31:03;;;;;;;32.13;10.15;;;;;;;14.24;nan;102080.59;4900216;29;20486;-81
2021/09/29 03:33:29;;;;;;;21.00;8.90;;;;;;;14.27;nan;102080.09;4891096;29;20046;-82
2021/09/29 03:35:54;;;;;;;22.80;9.20;;;;;;;14.28;nan;102080.94;4918096;29;20067;-82
2021/09/29 03:38:19;;;;;;;23.40;9.55;;;;;;;14.28;nan;102089.00;4892203;29;20028;-82
2021/09/29 03:40:45;;;;;;;31.23;10.30;;;;;;;14.26;nan;102083.06;4902915;29;20127;-82
2021/09/29 03:43:11;;;;;;;26.52;9.45;;;;;;;14.30;nan;102086.91;4902280;29;20028;-82
2021/09/29 03:45:37;;;;;;;26.40;9.77;;;;;;;14.30;nan;102084.19;4901236;29;20027;-82
2021/09/29 03:48:02;;;;;;;23.77;9.73;;;;;;;14.36;nan;102081.38;4898100;29;20036;-82
2021/09/29 03:50:30;;;;;;;21.83;8.45;;;;;;;14.40;nan;102084.41;4901211;29;20028;-82
2021/09/29 03:52:55;;;;;;;29.20;10.00;;;;;;;14.32;nan;102082.06;4915291;29;20502;-82
2021/09/29 03:55:22;;;;;;;26.58;9.82;;;;;;;14.20;nan;102074.06;4911409;29;20111;-82
2021/09/29 03:57:48;;;;;;;29.73;10.25;;;;;;;14.18;nan;102077.00;4897713;29;20055;-81
2021/09/29 04:00:14;;;;;;;21.25;8.45;;;;;;;14.29;nan;102071.78;4914198;29;20070;-82
2021/09/29 04:02:40;;;;;;;29.88;9.70;;;;;;;14.26;nan;102062.31;4912602;29;20103;-81
2021/09/29 04:05:07;;;;;;;22.58;9.07;;;;;;;14.32;nan;102069.41;4908778;29;20032;-82
2021/09/29 04:07:33;;;;;;;17.05;8.95;;;;;;;14.35;nan;102070.81;4917360;29;20056;-82
2021/09/29 04:09:58;;;;;;;30.13;10.32;;;;;;;14.32;nan;102065.91;4912300;29;20526;-83
2021/09/29 04:12:24;;;;;;;28.25;10.55;;;;;;;14.33;nan;102071.06;4907319;29;20628;-81
2021/09/29 04:14:51;;;;;;;30.35;10.82;;;;;;;14.27;nan;102065.81;4903004;29;20632;-82
2021/09/29 04:17:17;;;;;;;27.73;10.00;;;;;;;14.25;nan;102057.16;4915982;29;20043;-82
2021/09/29 04:19:43;;;;;;;24.42;9.43;;;;;;;14.16;nan;102057.53;4920149;29;20027;-81
2021/09/29 04:22:10;;;;;;;26.88;9.93;;;;;;;14.14;nan;102051.56;4922169;29;20023;-81
2021/09/29 04:24:37;;;;;;;24.45;9.45;;;;;;;14.18;nan;102055.44;4915793;29;20032;-81
2021/09/29 04:27:03;;;;;;;26.35;10.65;;;;;;;14.22;nan;102044.97;4910669;29;20062;-82
2021/09/29 04:29:29;;;;;;;19.95;8.55;;;;;;;14.31;nan;102053.47;4911956;29;20028;-81
2021/09/29 04:31:54;;;;;;;31.23;9.85;;;;;;;14.25;nan;102052.56;4914066;29;20435;-82
2021/09/29 04:34:20;;;;;;;23.83;8.73;;;;;;;14.32;nan;102052.41;4930418;29;20031;-82
2021/09/29 04:36:46;;;;;;;28.30;8.20;;;;;;;14.37;nan;102041.75;4906979;29;20032;-81
2021/09/29 04:39:15;;;;;;;20.48;8.07;;;;;;;14.31;nan;102048.09;4899209;29;20028;-81
2021/09/29 04:41:41;;;;;;;20.75;7.45;;;;;;;14.29;nan;102040.25;4923190;29;20111;-81
2021/09/29 04:44:07;;;;;;;23.08;8.15;;;;;;;14.32;nan;102042.47;4929142;29;20027;-82
2021/09/29 04:46:33;;;;;;;25.85;8.25;;;;;;;14.28;nan;102037.78;4904677;29;20028;-82
2021/09/29 04:48:58;;;;;;;25.33;8.85;;;;;;;14.23;nan;102043.91;4915067;29;20088;-83
2021/09/29 04:51:24;;;;;;;18.05;6.95;;;;;;;14.25;nan;102031.00;4920504;29;20060;-81
2021/09/29 04:53:50;;;;;;;18.08;7.53;;;;;;;14.23;nan;102035.00;4919082;29;20031;-81
2021/09/29 04:56:16;;;;;;;18.23;7.38;;;;;;;14.14;nan;102030.00;4898919;29;20071;-81
2021/09/29 04:58:45;;;;;;;27.65;8.18;;;;;;;14.11;nan;102027.78;4899807;29;20040;-82
2021/09/29 05:01:13;;;;;;;21.38;6.88;;;;;;;14.17;nan;102036.78;4912584;29;20123;-82
2021/09/29 05:03:39;;;;;;;24.52;8.48;;;;;;;14.19;nan;102040.88;4891494;29;20029;-81
2021/09/29 05:06:05;;;;;;;26.65;8.63;;;;;;;14.21;nan;102044.16;4898845;29;20083;-82
2021/09/29 05:08:35;;;;;;;21.95;7.93;;;;;;;14.20;nan;102042.53;4901665;29;20092;-81
2021/09/29 05:11:28;;;;;;;26.13;8.57;;;;;;;14.17;nan;102032.19;4904076;29;20036;-80
2021/09/29 05:13:55;;;;;;;22.40;7.70;;;;;;;14.13;nan;102036.44;4907363;29;20028;-81
2021/09/29 05:16:21;;;;;;;25.23;8.55;;;;;;;14.16;nan;102038.66;4903399;29;20117;-81
2021/09/29 05:18:47;;;;;;;24.67;8.38;;;;;;;14.24;nan;102042.03;4889290;29;20040;-81
2021/09/29 05:21:12;;;;;;;19.63;7.18;;;;;;;14.26;nan;102035.34;4900343;29;20035;-81
2021/09/29 05:23:40;;;;;;;21.58;7.70;;;;;;;14.30;nan;102041.88;4918147;29;20916;-81
2021/09/29 05:26:05;;;;;;;18.90;7.18;;;;;;;14.34;nan;102036.81;4914637;29;20110;-82
2021/09/29 05:28:36;;;;;;;22.65;8.55;;;;;;;14.33;nan;102041.41;4917714;29;20080;-81
2021/09/29 05:31:03;;;;;;;25.60;8.68;;;;;;;14.37;nan;102037.19;4913362;29;20100;-81
2021/09/29 05:33:28;;;;;;;38.17;10.65;;;;;;;14.37;nan;102037.19;4898165;29;20111;-82
2021/09/29 05:35:54;;;;;;;33.78;9.32;;;;;;;14.36;nan;102030.16;4893694;29;20199;-81
2021/09/29 05:38:20;;;;;;;22.77;8.68;;;;;;;14.44;nan;102020.88;4907787;29;20501;-81
2021/09/29 05:40:46;;;;;;;30.67;9.60;;;;;;;14.39;nan;102024.28;4893609;29;20032;-81
2021/09/29 05:43:12;;;;;;;22.33;8.77;;;;;;;14.42;nan;102022.97;4894215;29;20025;-81
2021/09/29 05:45:38;;;;;;;29.77;9.27;;;;;;;14.42;nan;102029.16;4898023;29;20119;-81
2021/09/29 05:48:04;;;;;;;32.53;10.15;;;;;;;14.46;nan;102035.75;4915011;29;20087;-81
2021/09/29 05:50:29;;;;;;;30.00;9.70;;;;;;;14.49;nan;102029.03;4913151;29;20050;-81
2021/09/29 05:52:55;;;;;;;25.13;9.85;;;;;;;14.49;nan;102026.34;4901788;29;20027;-82
2021/09/29 05:55:21;;;;;;;36.65;9.93;;;;;;;14.53;nan;102027.50;4890768;29;20055;-81
2021/09/29 05:57:47;;;;;;;27.50;9.75;;;;;;;14.51;nan;102024.22;4896899;29;20035;-81
2021/09/29 06:00:13;;;;;;;26.45;9.70;;;;;;;14.53;nan;102024.78;4911815;29;20028;-81
2021/09/29 06:02:40;;;;;;;30.75;10.20;;;;;;;14.53;nan;102019.41;4918479;29;20091;-81
2021/09/29 06:05:06;;;;;;;25.17;9.15;;;;;;;14.57;nan;102015.19;4913667;29;20410;-81
2021/09/29 06:07:31;;;;;;;35.00;10.90;;;;;;;14.62;nan;102012.56;4911202;29;20039;-82
2021/09/29 06:09:57;;;;;;;33.58;11.20;;;;;;;14.61;nan;102010.09;4898568;29;20024;-81
2021/09/29 06:12:22;;;;;;;27.38;9.95;;;;;;;14.64;nan;102006.91;4895921;29;20029;-81
2021/09/29 06:14:53;;;;;;;28.58;10.43;;;;;;;14.70;nan;102004.03;4906154;29;20063;-81
2021/09/29 06:18:20;;;;;;;22.67;9.40;;;;;;;14.70;nan;102003.22;4896664;29;20163;-82
2021/09/29 06:20:14;;;;;;;32.20;12.02;;;;;;;14.72;nan;102004.66;4900243;29;20028;-81
2021/09/29 06:22:39;;;;;;;30.42;12.38;;;;;;;14.68;nan;101998.09;4891126;29;20031;-81
2021/09/29 06:25:06;;;;;;;27.30;11.20;;;;;;;14.72;nan;101991.16;4908448;29;20177;-82
2021/09/29 06:27:32;;;;;;;31.75;12.38;;;;;;;14.75;nan;101989.84;4883297;29;20031;-81
2021/09/29 06:29:58;;;;;;;28.17;11.88;;;;;;;14.80;nan;101990.72;4904982;29;20123;-81
2021/09/29 06:32:23;;;;;;;25.80;12.23;;;;;;;14.85;nan;101992.69;4882334;29;20589;-81
2021/09/29 06:34:49;;;;;;;30.35;13.45;;;;;;;14.86;nan;101985.41;4898213;29;20118;-81
2021/09/29 06:37:14;;;;;;;38.17;14.77;;;;;;;14.84;nan;101982.97;4896416;29;20120;-81
2021/09/29 06:39:40;;;;;;;28.10;12.55;;;;;;;14.90;nan;101987.38;4886223;29;20042;-81
2021/09/29 06:42:05;;;;;;;35.45;14.10;;;;;;;14.86;nan;101980.81;4897857;29;20036;-81
2021/09/29 06:44:31;;;;;;;30.83;12.88;;;;;;;14.93;nan;101984.19;4907476;29;20040;-81
2021/09/29 06:46:57;;;;;;;39.10;15.02;;;;;;;14.97;nan;101973.72;4880704;29;20043;-81
2021/09/29 06:49:23;;;;;;;44.75;15.52;;;;;;;15.00;nan;101978.63;4897942;29;20414;-81
2021/09/29 06:51:49;;;;;;;41.72;15.45;;;;;;;15.07;nan;101976.53;4886400;29;20280;-81
2021/09/29 06:54:14;;;;;;;50.65;18.13;;;;;;;15.12;nan;101979.34;4911886;29;20556;-80
2021/09/29 06:56:40;;;;;;;47.05;17.35;;;;;;;15.13;nan;101980.16;4914191;29;20642;-81
2021/09/29 06:59:05;;;;;;;57.75;18.73;;;;;;;15.14;nan;101973.69;4901872;29;20459;-81
2021/09/29 07:01:31;;;;;;;60.00;18.50;;;;;;;15.09;nan;101979.84;4888886;29;20028;-81
2021/09/29 07:03:56;;;;;;;61.65;19.55;;;;;;;15.14;nan;101971.81;4881628;29;20115;-82
2021/09/29 07:06:22;;;;;;;60.22;20.00;;;;;;;15.15;nan;101978.84;4896865;29;20019;-81
2021/09/29 07:08:47;;;;;;;59.22;20.23;;;;;;;15.18;nan;101969.41;4889115;29;20466;-82
2021/09/29 07:11:16;;;;;;;67.40;21.85;;;;;;;15.18;nan;101972.94;4900668;29;20032;-81
2021/09/29 07:13:41;;;;;;;60.53;20.25;;;;;;;15.21;nan;101972.44;4908515;29;20418;-81
2021/09/29 07:16:07;;;;;;;62.15;20.17;;;;;;;15.27;nan;101966.06;4884460;29;20128;-81
2021/09/29 07:18:32;;;;;;;60.90;20.58;;;;;;;15.34;nan;101968.56;4886175;29;20483;-82
2021/09/29 07:20:59;;;;;;;65.53;21.23;;;;;;;15.39;nan;101968.63;4904162;29;20031;-81
2021/09/29 07:23:25;;;;;;;49.95;20.85;;;;;;;15.36;nan;101969.94;4888184;29;20116;-81
2021/09/29 07:25:51;;;;;;;56.58;21.10;;;;;;;15.42;nan;101957.31;4902522;29;20120;-82
2021/09/29 07:28:17;;;;;;;48.78;20.85;;;;;;;15.48;nan;101955.50;4888204;29;20184;-81
2021/09/29 07:30:45;;;;;;;54.35;21.40;;;;;;;15.59;nan;101958.09;4900212;29;21116;-81
2021/09/29 07:33:12;;;;;;;54.47;21.25;;;;;;;15.67;nan;101956.84;4893318;29;20025;-81
2021/09/29 07:35:39;;;;;;;48.50;21.75;;;;;;;15.76;nan;101949.91;4880227;29;20035;-81
2021/09/29 07:38:05;;;;;;;62.67;22.60;;;;;;;15.83;nan;101947.84;4897407;29;20477;-81
2021/09/29 07:40:31;;;;;;;49.63;22.38;;;;;;;15.91;nan;101941.97;4904155;29;20060;-81
2021/09/29 07:42:57;;;;;;;47.22;22.88;;;;;;;16.00;nan;101942.34;4894581;29;20031;-81
2021/09/29 07:45:23;;;;;;;48.05;23.27;;;;;;;16.14;nan;101938.16;4896629;29;20364;-81
2021/09/29 07:47:50;;;;;;;48.80;22.42;;;;;;;16.29;nan;101937.47;4906341;29;20123;-82
2021/09/29 07:50:16;;;;;;;50.90;25.83;;;;;;;16.37;nan;101934.31;4880819;29;20032;-82
2021/09/29 07:52:43;;;;;;;52.22;24.73;;;;;;;16.43;nan;101930.56;4880645;29;20275;-81
2021/09/29 07:55:10;;;;;;;44.72;23.90;;;;;;;16.56;nan;101940.16;4902381;29;20030;-82
2021/09/29 07:57:35;;;;;;;44.60;23.90;;;;;;;16.74;nan;101925.41;4907237;29;20066;-81
2021/09/29 08:00:01;;;;;;;42.83;22.85;;;;;;;16.89;nan;101922.81;4896611;29;20055;-81
2021/09/29 08:02:26;;;;;;;45.90;24.38;;;;;;;17.10;nan;101929.97;4897199;29;20032;-81
2021/09/29 08:04:53;;;;;;;37.13;22.23;;;;;;;17.29;nan;101922.22;4880401;29;20028;-81
2021/09/29 08:07:18;;;;;;;40.35;22.30;;;;;;;17.41;nan;101917.34;4901830;29;20036;-81
2021/09/29 08:09:44;;;;;;;35.38;22.00;;;;;;;17.47;nan;101918.22;4885039;29;20047;-81
2021/09/29 08:12:10;;;;;;;33.60;21.13;;;;;;;17.40;nan;101914.91;4895008;29;20032;-81
2021/09/29 08:14:39;;;;;;;37.53;21.52;;;;;;;17.42;nan;101910.91;4884763;29;20123;-82
2021/09/29 08:17:06;;;;;;;32.97;19.63;;;;;;;17.56;nan;101904.94;4880750;29;20509;-81
2021/09/29 08:19:33;;;;;;;32.28;19.48;;;;;;;17.61;nan;101900.38;4883776;29;20456;-81
2021/09/29 08:22:02;;;;;;;28.73;17.33;;;;;;;17.64;nan;101901.75;4897380;29;20027;-82
2021/09/29 08:24:36;;;;;;;26.73;15.35;;;;;;;17.56;nan;101891.41;4892170;29;20025;-81
2021/09/29 08:27:06;;;;;;;30.48;15.23;;;;;;;17.69;nan;101885.50;4896217;29;20537;-81
2021/09/29 08:32:13;;;;;;;22.98;15.13;;;;;;;17.86;nan;101887.97;4901292;29;20419;-82
2021/09/29 08:37:25;;;;;;;22.92;14.05;;;;;;;17.93;nan;101881.19;4905954;29;20590;-82
2021/09/29 08:47:42;;;;;;;16.27;11.23;;;;;;;17.90;nan;101884.47;4904367;29;20455;-82
2021/09/29 08:50:22;;;;;;;17.52;11.85;;;;;;;17.88;nan;101878.50;4902492;29;20068;-82
2021/09/29 09:15:21;;;;;;;13.90;9.82;;;;;;;18.15;nan;101864.69;4901429;29;20042;-81
2021/09/29 09:17:42;;;;;;;15.65;10.18;;;;;;;18.38;nan;101876.88;4901711;29;20040;-81
2021/09/29 09:20:18;;;;;;;14.75;9.65;;;;;;;18.39;nan;101873.88;4906245;29;20059;-82
2021/09/29 09:22:48;;;;;;;14.07;10.02;;;;;;;18.42;nan;101876.06;4896307;29;20203;-81
2021/09/29 09:25:13;;;;;;;15.43;9.50;;;;;;;18.33;nan;101877.72;4908343;29;20028;-82
2021/09/29 09:27:46;;;;;;;16.17;9.48;;;;;;;18.40;nan;101880.13;4898529;29;20043;-81
2021/09/29 09:30:36;;;;;;;14.90;9.77;;;;;;;18.39;nan;101871.19;4881124;29;20029;-82
2021/09/29 09:33:03;;;;;;;15.02;9.75;;;;;;;18.45;nan;101863.03;4900452;29;20035;-82
2021/09/29 09:35:42;;;;;;;12.98;9.13;;;;;;;18.67;nan;101866.25;4882891;29;20035;-82
2021/09/29 09:38:23;;;;;;;13.77;9.55;;;;;;;18.78;nan;101862.44;4906162;29;20111;-82
2021/09/29 09:40:55;;;;;;;13.23;9.00;;;;;;;18.87;nan;101852.66;4904118;29;20569;-82
2021/09/29 09:43:30;;;;;;;14.50;10.05;;;;;;;19.22;nan;101856.31;4899988;29;20206;-82
2021/09/29 09:45:58;;;;;;;15.70;8.93;;;;;;;19.38;nan;101843.44;4888898;29;20032;-82
2021/09/29 09:48:26;;;;;;;11.40;9.32;;;;;;;19.66;nan;101847.41;4897483;29;20035;-81
2021/09/29 09:51:04;;;;;;;12.68;8.68;;;;;;;19.78;nan;101850.59;4885346;29;20023;-82
2021/09/29 09:53:29;;;;;;;13.75;9.75;;;;;;;19.84;nan;101847.53;4905974;29;20032;-82
2021/09/29 09:55:55;;;;;;;14.20;9.02;;;;;;;20.05;nan;101834.56;4887642;29;20131;-82
2021/09/29 09:58:21;;;;;;;12.75;9.68;;;;;;;20.11;nan;101840.81;4906857;29;20027;-82
2021/09/29 10:00:46;;;;;;;12.15;8.77;;;;;;;20.10;nan;101831.81;4885356;29;20035;-81
2021/09/29 10:03:14;;;;;;;14.70;9.55;;;;;;;20.01;nan;101827.28;4904586;29;20320;-81
2021/09/29 10:05:42;;;;;;;15.00;10.82;;;;;;;20.01;nan;101833.53;4909301;29;20032;-82
2021/09/29 10:08:09;;;;;;;14.10;9.60;;;;;;;19.95;nan;101834.69;4901265;29;20107;-82
2021/09/29 10:14:31;;;;;;;15.65;8.50;;;;;;;19.47;nan;101839.88;4888959;29;20044;-82
2021/09/29 10:27:56;;;;;;;14.80;9.35;;;;;;;17.97;nan;101838.13;4908048;29;20110;-82
2021/09/29 10:30:29;;;;;;;20.88;9.82;;;;;;;17.69;nan;101834.00;4889347;29;20032;-82
2021/09/29 10:32:59;;;;;;;11.63;9.00;;;;;;;17.68;nan;101837.81;4895252;29;20491;-82
2021/09/29 10:40:57;;;;;;;13.48;8.88;;;;;;;17.68;nan;101829.69;4902053;29;20123;-82
2021/09/29 10:46:33;;;;;;;;;;;;;;;17.89;nan;101833.22;4903816;29;20534;-81
2021/09/29 10:49:11;;;;;;;13.88;10.55;;;;;;;17.94;nan;101817.75;4896540;29;20346;-82
2021/09/29 11:28:13;;;;;;;12.50;7.88;;;;;;;17.32;nan;101820.63;4907218;29;20643;-82
2021/09/29 11:30:48;;;;;;;12.45;8.27;;;;;;;17.25;nan;101815.47;4908397;29;20040;-81
2021/09/29 11:33:29;;;;;;;11.60;8.63;;;;;;;17.22;nan;101803.25;4912035;29;20055;-81
2021/09/29 12:08:33;;;;;;;13.23;6.85;;;;;;;16.59;nan;101799.75;4913330;29;20518;-81
2021/09/29 12:11:10;;;;;;;10.20;7.65;;;;;;;16.52;nan;101795.66;4909645;29;20079;-82
2021/09/29 12:13:49;;;;;;;14.07;7.38;;;;;;;15.92;nan;101800.38;4905058;29;20412;-81
2021/09/29 12:16:28;;;;;;;14.98;7.32;;;;;;;15.73;nan;101807.22;4922048;29;20552;-82
2021/09/29 12:19:06;;;;;;;13.25;7.00;;;;;;;15.71;nan;101801.28;4910932;29;20031;-83
2021/09/29 12:21:46;;;;;;;8.90;7.10;;;;;;;15.37;nan;101796.03;4888740;29;20059;-82
2021/09/29 12:24:14;;;;;;;12.63;8.38;;;;;;;15.36;nan;101796.31;4920794;29;20034;-81
2021/09/29 12:26:42;;;;;;;12.85;7.78;;;;;;;15.19;nan;101790.19;4900156;29;20123;-82
2021/09/29 12:29:22;;;;;;;13.68;8.65;;;;;;;15.20;nan;101786.41;4899165;29;20028;-82
2021/09/29 12:32:07;;;;;;;13.50;8.25;;;;;;;15.16;nan;101780.72;4920020;29;20032;-81
2021/09/29 12:34:45;;;;;;;11.90;8.88;;;;;;;15.04;nan;101780.03;4904613;29;20418;-82
2021/09/29 12:37:12;;;;;;;12.68;8.63;;;;;;;15.15;nan;101768.28;4895547;29;20091;-82
2021/09/29 12:39:38;;;;;;;13.88;9.00;;;;;;;15.23;nan;101765.13;4900841;29;20024;-83
2021/09/29 12:42:04;;;;;;;11.82;8.52;;;;;;;15.16;nan;101769.91;4915837;29;20032;-84
2021/09/29 12:44:30;;;;;;;11.82;9.32;;;;;;;15.17;nan;101776.94;4907428;29;20506;-83
2021/09/29 12:47:20;;;;;;;14.55;8.95;;;;;;;15.16;nan;101761.81;4899628;29;20040;-83
2021/09/29 12:49:46;;;;;;;13.65;8.57;;;;;;;15.20;nan;101771.03;4885265;29;20086;-81
2021/09/29 12:52:28;;;;;;;17.27;9.90;;;;;;;15.23;nan;101773.22;4919950;29;20055;-81
2021/09/29 12:54:56;;;;;;;15.00;10.23;;;;;;;15.26;nan;101770.03;4918221;29;20035;-81
2021/09/29 12:57:24;;;;;;;17.75;9.70;;;;;;;15.31;nan;101777.38;4916470;29;20032;-82
2021/09/29 12:59:49;;;;;;;17.02;10.55;;;;;;;15.34;nan;101776.84;4895887;29;20060;-83
2021/09/29 13:02:15;;;;;;;17.98;9.82;;;;;;;15.34;nan;101777.66;4905125;29;20058;-84
2021/09/29 13:04:40;;;;;;;16.02;10.07;;;;;;;15.25;nan;101765.66;4900298;29;20052;-83
2021/09/29 13:07:05;;;;;;;17.80;10.93;;;;;;;15.31;nan;101763.84;4893061;29;20040;-83
2021/09/29 13:09:31;;;;;;;17.17;10.45;;;;;;;15.08;nan;101767.66;4900375;29;20024;-83
2021/09/29 13:11:59;;;;;;;17.02;9.98;;;;;;;15.12;nan;101763.41;4882017;29;20028;-83
2021/09/29 13:14:25;;;;;;;18.08;9.95;;;;;;;15.13;nan;101756.94;4885983;29;20039;-85
2021/09/29 13:16:50;;;;;;;14.57;10.55;;;;;;;15.14;nan;101755.03;4905370;29;20043;-83
2021/09/29 13:19:22;;;;;;;15.43;10.32;;;;;;;15.27;nan;101765.44;4910723;29;20028;-83
2021/09/29 13:21:53;;;;;;;16.35;11.07;;;;;;;15.39;nan;101768.78;4915662;29;20032;-84
2021/09/29 13:24:38;;;;;;;18.63;11.45;;;;;;;15.42;nan;101770.97;4892963;29;20029;-83
2021/09/29 13:35:27;;;;;;;16.10;10.88;;;;;;;15.53;nan;101743.00;4918590;29;20530;-83
2021/09/29 13:37:53;;;;;;;16.77;11.80;;;;;;;15.52;nan;101741.38;4895418;29;20068;-85
2021/09/29 13:40:24;;;;;;;18.88;10.88;;;;;;;15.52;nan;101743.25;4899668;29;20070;-83
2021/09/29 13:42:51;;;;;;;18.52;12.02;;;;;;;15.48;nan;101753.75;4905509;29;20044;-84
2021/09/29 13:45:17;;;;;;;15.98;10.45;;;;;;;15.46;nan;101760.50;4914117;29;20435;-84
2021/09/29 13:47:42;;;;;;;16.50;11.38;;;;;;;15.39;nan;101753.41;4906570;29;20034;-85
2021/09/29 13:50:10;;;;;;;18.20;10.20;;;;;;;15.34;nan;101750.66;4902923;29;20038;-85
2021/09/29 13:52:36;;;;;;;15.38;10.23;;;;;;;15.34;nan;101756.06;4915239;29;20034;-83